Time;durP1;ratioP1;P1;durP2;ratioP2;P2;SDS_P1;SDS_P2;PMS_P1;PMS_P2;Temp;Humidity;BMP_temperature;BMP_pressure;BME280_temperature;BME280_humidity;BME280_pressure;Samples;Min_cycle;Max_cycle;Signal;HPM_P1;HPM_P2
2023/09/24 00:02:05;;;;;;;0.50;0.50;;;;;;;12.51;100.00;100862.03;4965459;28;20766;-68
2023/09/24 00:04:31;;;;;;;0.50;0.50;;;;;;;12.53;100.00;100866.44;4972833;28;20590;-68
2023/09/24 00:06:56;;;;;;;0.50;0.50;;;;;;;12.47;100.00;100863.91;4972903;28;20538;-68
2023/09/24 00:09:22;;;;;;;0.40;0.40;;;;;;;12.42;100.00;100867.63;4973420;28;20041;-67
2023/09/24 00:11:47;;;;;;;0.40;0.40;;;;;;;12.31;100.00;100861.69;4968866;28;20037;-68
2023/09/24 00:14:13;;;;;;;0.50;0.50;;;;;;;12.34;100.00;100875.81;4972294;28;20073;-67
2023/09/24 00:16:40;;;;;;;0.40;0.40;;;;;;;12.34;100.00;100873.16;4972726;28;20031;-68
2023/09/24 00:19:06;;;;;;;0.50;0.50;;;;;;;12.35;100.00;100866.91;4972813;28;20023;-61
2023/09/24 00:21:31;;;;;;;0.40;0.40;;;;;;;12.37;100.00;100870.41;4956461;28;20035;-59
2023/09/24 00:23:57;;;;;;;0.50;0.50;;;;;;;12.40;100.00;100875.69;4953758;28;20078;-59
2023/09/24 00:26:24;;;;;;;0.50;0.50;;;;;;;12.51;100.00;100883.38;4968957;28;20363;-59
2023/09/24 00:28:50;;;;;;;0.40;0.40;;;;;;;12.61;100.00;100890.22;4958272;28;20113;-60
2023/09/24 00:31:15;;;;;;;0.43;0.43;;;;;;;12.67;100.00;100885.59;4952672;29;20023;-60
2023/09/24 00:33:41;;;;;;;0.50;0.50;;;;;;;12.70;100.00;100890.84;4955903;28;20349;-60
2023/09/24 00:36:07;;;;;;;0.40;0.40;;;;;;;12.72;100.00;100885.47;4953870;29;20042;-60
2023/09/24 00:38:32;;;;;;;0.50;0.50;;;;;;;12.68;100.00;100889.16;4953769;29;20539;-60
2023/09/24 00:40:58;;;;;;;0.40;0.40;;;;;;;12.69;100.00;100890.91;4973043;28;20386;-60
2023/09/24 00:43:29;;;;;;;0.40;0.40;;;;;;;12.69;100.00;100901.56;4970674;28;20122;-60
2023/09/24 00:45:57;;;;;;;0.50;0.50;;;;;;;12.58;100.00;100895.66;4972250;28;20033;-60
2023/09/24 00:48:27;;;;;;;0.40;0.40;;;;;;;12.50;100.00;100894.97;4972352;28;20022;-60
2023/09/24 00:50:57;;;;;;;0.40;0.40;;;;;;;12.43;100.00;100901.38;4970942;28;20030;-60
2023/09/24 00:53:28;;;;;;;0.40;0.40;;;;;;;12.36;100.00;100910.47;4954664;28;20024;-60
2023/09/24 00:55:55;;;;;;;0.50;0.50;;;;;;;12.22;100.00;100905.50;4967198;28;20037;-60
2023/09/24 00:58:23;;;;;;;0.50;0.50;;;;;;;12.09;100.00;100900.50;4969192;28;20049;-59
2023/09/24 01:00:51;;;;;;;0.50;0.50;;;;;;;12.00;100.00;100901.59;4972540;28;20037;-59
2023/09/24 01:03:18;;;;;;;0.50;0.50;;;;;;;12.00;100.00;100901.59;4968326;28;20105;-60
2023/09/24 01:05:44;;;;;;;0.47;0.47;;;;;;;11.97;100.00;100907.00;4972818;28;20027;-61
2023/09/24 01:08:10;;;;;;;0.50;0.50;;;;;;;11.92;100.00;100900.91;4966070;28;20035;-59
2023/09/24 01:10:35;;;;;;;0.50;0.50;;;;;;;11.89;100.00;100903.66;4960494;28;20094;-60
2023/09/24 01:13:04;;;;;;;0.40;0.40;;;;;;;11.81;100.00;100889.63;4972022;28;20053;-60
2023/09/24 01:15:31;;;;;;;0.40;0.40;;;;;;;11.84;100.00;100905.56;4963038;28;20077;-60
2023/09/24 01:17:57;;;;;;;0.50;0.50;;;;;;;11.71;100.00;100888.94;4954450;28;20023;-60
2023/09/24 01:20:24;;;;;;;0.50;0.50;;;;;;;11.73;100.00;100902.22;4972105;28;20575;-61
2023/09/24 01:22:50;;;;;;;0.40;0.40;;;;;;;11.78;100.00;100905.66;4954590;28;20035;-59
2023/09/24 01:25:20;;;;;;;0.40;0.40;;;;;;;11.73;100.00;100892.47;4958440;28;20510;-60
2023/09/24 01:27:46;;;;;;;0.50;0.50;;;;;;;11.75;100.00;100895.97;4960983;28;20058;-60
2023/09/24 01:30:13;;;;;;;0.50;0.50;;;;;;;11.72;100.00;100893.38;4957581;28;20061;-60
2023/09/24 01:32:40;;;;;;;0.50;0.50;;;;;;;11.69;100.00;100895.25;4968671;28;20037;-60
2023/09/24 01:35:06;;;;;;;0.50;0.50;;;;;;;11.71;100.00;100893.44;4952311;28;20491;-61
2023/09/24 01:37:34;;;;;;;0.40;0.40;;;;;;;11.72;100.00;100895.16;4952124;29;20035;-60
2023/09/24 01:40:41;;;;;;;0.50;0.50;;;;;;;11.72;100.00;100884.50;4955800;28;20037;-60
2023/09/24 01:43:04;;;;;;;0.50;0.50;;;;;;;11.74;100.00;100888.03;4968602;28;20653;-60
2023/09/24 01:45:30;;;;;;;0.50;0.50;;;;;;;11.73;100.00;100889.78;4969754;28;20149;-60
2023/09/24 01:47:55;;;;;;;0.50;0.50;;;;;;;11.65;100.00;100889.09;4970341;28;20027;-60
2023/09/24 01:50:27;;;;;;;0.50;0.50;;;;;;;11.63;100.00;100896.25;4971092;28;20069;-59
2023/09/24 01:52:53;;;;;;;0.50;0.50;;;;;;;11.60;100.00;100898.06;4964977;28;20085;-60
2023/09/24 01:55:19;;;;;;;0.60;0.60;;;;;;;11.53;100.00;100908.00;4971425;28;20113;-59
2023/09/24 01:57:45;;;;;;;0.50;0.50;;;;;;;11.50;100.00;100909.84;4968027;28;20150;-60
2023/09/24 02:00:12;;;;;;;0.43;0.43;;;;;;;11.42;100.00;100911.78;4970959;28;20478;-61
2023/09/24 02:02:38;;;;;;;0.50;0.50;;;;;;;11.38;100.00;100907.47;4968723;28;20027;-60
2023/09/24 02:05:07;;;;;;;0.50;0.50;;;;;;;11.32;100.00;100915.56;4951884;29;20019;-59
2023/09/24 02:07:33;;;;;;;0.50;0.50;;;;;;;11.27;100.00;100918.34;4956386;28;20019;-67
2023/09/24 02:09:58;;;;;;;0.50;0.50;;;;;;;11.26;100.00;100913.03;4971198;28;20048;-68
2023/09/24 02:12:26;;;;;;;0.50;0.50;;;;;;;11.24;100.00;100917.50;4967140;28;20051;-68
2023/09/24 02:14:52;;;;;;;0.57;0.57;;;;;;;11.19;100.00;100908.75;4971133;28;20077;-67
2023/09/24 02:17:18;;;;;;;0.50;0.50;;;;;;;11.29;100.00;100916.53;4963604;28;20050;-68
2023/09/24 02:19:44;;;;;;;0.50;0.50;;;;;;;11.26;100.00;100915.72;4960324;28;20502;-67
2023/09/24 02:22:11;;;;;;;0.50;0.50;;;;;;;11.25;100.00;100911.31;4970199;28;20035;-67
2023/09/24 02:24:40;;;;;;;0.50;0.50;;;;;;;11.25;100.00;100909.50;4968299;28;20101;-67
2023/09/24 02:27:06;;;;;;;0.55;0.55;;;;;;;11.24;100.00;100913.06;4970806;28;20030;-67
2023/09/24 02:29:32;;;;;;;0.50;0.50;;;;;;;11.19;100.00;100903.41;4961950;28;20046;-67
2023/09/24 02:31:57;;;;;;;0.50;0.50;;;;;;;11.30;100.00;100922.75;4951557;29;20027;-67
2023/09/24 02:34:23;;;;;;;0.50;0.50;;;;;;;11.29;100.00;100927.19;4952135;28;20130;-65
2023/09/24 02:36:48;;;;;;;0.60;0.60;;;;;;;11.23;100.00;100913.13;4970522;28;20026;-67
2023/09/24 02:39:14;;;;;;;0.60;0.60;;;;;;;11.28;100.00;100929.88;4970620;28;20025;-67
2023/09/24 02:41:40;;;;;;;0.50;0.50;;;;;;;11.25;100.00;100929.94;4968253;28;20515;-67
2023/09/24 02:44:06;;;;;;;0.60;0.60;;;;;;;11.19;100.00;100927.38;4989979;28;20026;-68
2023/09/24 02:46:32;;;;;;;0.50;0.50;;;;;;;11.21;100.00;100936.22;4984800;28;20038;-68
2023/09/24 02:48:57;;;;;;;0.60;0.60;;;;;;;11.10;100.00;100906.28;4952099;28;20395;-68
2023/09/24 02:51:22;;;;;;;0.50;0.50;;;;;;;11.30;100.00;100934.25;4951272;29;20038;-67
2023/09/24 02:53:48;;;;;;;0.60;0.60;;;;;;;11.36;100.00;100934.13;4961313;28;20117;-68
2023/09/24 02:56:17;;;;;;;0.57;0.57;;;;;;;11.38;100.00;100936.75;4970809;28;20046;-67
2023/09/24 02:58:42;;;;;;;0.50;0.50;;;;;;;11.38;100.00;100937.63;4966320;28;20112;-68
2023/09/24 03:01:15;;;;;;;0.60;0.60;;;;;;;11.35;100.00;100942.16;4970315;28;20031;-67
2023/09/24 03:03:41;;;;;;;0.60;0.60;;;;;;;11.29;100.00;100940.50;4967790;28;20067;-66
2023/09/24 03:06:06;;;;;;;0.50;0.50;;;;;;;11.26;100.00;100929.03;4959533;28;20089;-67
2023/09/24 03:08:32;;;;;;;0.60;0.60;;;;;;;11.16;100.00;100936.31;4970284;28;20162;-67
2023/09/24 03:10:57;;;;;;;0.50;0.50;;;;;;;11.16;100.00;100943.44;4966668;28;20035;-68
2023/09/24 03:13:23;;;;;;;0.60;0.60;;;;;;;11.03;100.00;100929.50;4970155;28;20078;-67
2023/09/24 03:15:48;;;;;;;0.50;0.50;;;;;;;11.02;100.00;100948.16;4970632;28;20554;-68
2023/09/24 03:18:13;;;;;;;0.50;0.50;;;;;;;10.99;100.00;100940.25;4963160;28;20550;-60
2023/09/24 03:20:39;;;;;;;0.60;0.60;;;;;;;10.94;100.00;100939.47;4951178;29;20121;-60
2023/09/24 03:23:09;;;;;;;0.60;0.60;;;;;;;10.89;100.00;100941.31;4951263;29;20023;-60
2023/09/24 03:25:35;;;;;;;0.50;0.50;;;;;;;10.80;100.00;100946.81;4958129;28;20754;-61
2023/09/24 03:28:01;;;;;;;0.60;0.60;;;;;;;10.78;100.00;100956.59;4959730;28;20035;-60
2023/09/24 03:30:26;;;;;;;0.60;0.60;;;;;;;10.71;100.00;100952.31;4987496;28;20022;-60
2023/09/24 03:32:53;;;;;;;0.60;0.60;;;;;;;10.71;100.00;100954.97;4980154;28;20059;-60
2023/09/24 03:35:23;;;;;;;0.50;0.50;;;;;;;10.68;100.00;100960.31;4951355;29;20033;-59
2023/09/24 03:37:48;;;;;;;0.60;0.60;;;;;;;10.68;100.00;100953.22;4952514;28;20027;-60
2023/09/24 03:40:18;;;;;;;0.60;0.60;;;;;;;10.66;100.00;100949.72;4958474;28;20027;-60
2023/09/24 03:42:44;;;;;;;0.55;0.55;;;;;;;10.59;100.00;100956.94;4970395;28;20029;-60
2023/09/24 03:45:15;;;;;;;0.50;0.50;;;;;;;10.59;100.00;100956.94;4967048;28;20053;-60
2023/09/24 03:47:41;;;;;;;0.50;0.50;;;;;;;10.59;100.00;100954.28;4969988;28;20041;-61
2023/09/24 03:50:13;;;;;;;0.60;0.60;;;;;;;10.57;100.00;100960.53;4969921;28;20039;-62
2023/09/24 03:52:46;;;;;;;0.60;0.60;;;;;;;10.56;100.00;100964.97;4968242;28;20493;-60
2023/09/24 03:55:11;;;;;;;0.50;0.50;;;;;;;10.53;100.00;100964.13;4959244;28;20501;-60
2023/09/24 03:57:38;;;;;;;0.60;0.60;;;;;;;10.47;100.00;100978.44;4969837;28;20031;-60
2023/09/24 04:00:15;;;;;;;0.60;0.60;;;;;;;10.43;100.00;100968.75;4968822;28;20698;-60
2023/09/24 04:02:51;;;;;;;0.60;0.60;;;;;;;10.40;100.00;100976.78;4973797;28;20049;-60
2023/09/24 04:05:18;;;;;;;0.60;0.60;;;;;;;10.37;100.00;100975.94;4966632;28;20030;-60
2023/09/24 04:07:46;;;;;;;0.70;0.70;;;;;;;10.27;100.00;100964.59;4980856;28;20041;-60
2023/09/24 04:10:14;;;;;;;0.60;0.60;;;;;;;10.27;100.00;100977.00;4989384;28;20037;-60
2023/09/24 04:12:41;;;;;;;0.70;0.70;;;;;;;10.24;100.00;100983.25;4972230;28;20416;-59
2023/09/24 04:15:07;;;;;;;0.60;0.60;;;;;;;10.22;100.00;100985.06;4973104;28;20113;-59
2023/09/24 04:17:32;;;;;;;0.60;0.60;;;;;;;10.12;100.00;100977.22;4969869;28;20082;-60
2023/09/24 04:19:58;;;;;;;0.63;0.63;;;;;;;10.12;100.00;100983.44;4973482;28;20034;-61
2023/09/24 04:22:24;;;;;;;0.60;0.60;;;;;;;10.12;100.00;100983.44;4970823;28;20106;-61
2023/09/24 04:24:54;;;;;;;0.60;0.60;;;;;;;10.12;100.00;100994.06;4969497;28;20433;-61
2023/09/24 04:27:21;;;;;;;0.60;0.60;;;;;;;10.09;100.00;100991.47;4973382;28;20027;-60
2023/09/24 04:29:47;;;;;;;0.70;0.70;;;;;;;10.07;100.00;100995.88;4962023;28;20159;-61
2023/09/24 04:32:12;;;;;;;0.70;0.70;;;;;;;10.02;100.00;101000.41;4953734;29;20127;-61
2023/09/24 04:34:37;;;;;;;0.70;0.70;;;;;;;9.95;100.00;101004.03;4953333;29;20031;-60
2023/09/24 04:37:03;;;;;;;0.68;0.68;;;;;;;9.89;100.00;101001.47;4953280;29;20031;-61
2023/09/24 04:39:28;;;;;;;0.60;0.60;;;;;;;10.01;100.00;101011.94;4955102;28;20023;-61
2023/09/24 04:41:54;;;;;;;0.60;0.60;;;;;;;10.09;100.00;101010.06;4969598;28;20134;-60
2023/09/24 04:44:19;;;;;;;0.60;0.60;;;;;;;10.17;100.00;101018.81;4970424;28;20027;-60
2023/09/24 04:46:45;;;;;;;0.60;0.60;;;;;;;10.16;100.00;101017.06;4972918;28;20023;-60
2023/09/24 04:49:10;;;;;;;0.60;0.60;;;;;;;10.15;100.00;101020.59;4971335;28;20541;-62
2023/09/24 04:51:36;;;;;;;0.70;0.70;;;;;;;10.18;100.00;101025.88;4969775;28;20581;-61
2023/09/24 04:54:02;;;;;;;0.60;0.60;;;;;;;10.14;100.00;101028.59;4971879;28;20390;-60
2023/09/24 04:56:28;;;;;;;0.60;0.60;;;;;;;10.09;100.00;101033.13;4972735;28;20069;-60
2023/09/24 04:58:53;;;;;;;0.70;0.70;;;;;;;10.02;100.00;101034.94;4969316;28;20459;-60
2023/09/24 05:01:19;;;;;;;0.60;0.60;;;;;;;9.99;100.00;101036.75;4969134;28;20029;-60
2023/09/24 05:03:47;;;;;;;0.60;0.60;;;;;;;9.93;100.00;101039.53;4972796;28;20423;-59
2023/09/24 05:06:13;;;;;;;0.60;0.60;;;;;;;9.91;100.00;101050.16;4971878;28;20070;-59
2023/09/24 05:08:38;;;;;;;0.60;0.60;;;;;;;9.87;100.00;101052.88;4970090;28;20137;-59
2023/09/24 05:11:04;;;;;;;0.70;0.70;;;;;;;9.78;100.00;101040.59;4970471;28;20081;-59
2023/09/24 05:13:30;;;;;;;0.60;0.60;;;;;;;9.82;100.00;101047.63;4972388;28;20059;-59
2023/09/24 05:15:59;;;;;;;0.55;0.55;;;;;;;9.90;100.00;101058.16;4968186;28;20418;-59
2023/09/24 05:18:28;;;;;;;0.60;0.60;;;;;;;9.97;100.00;101062.47;4952839;29;20034;-60
2023/09/24 05:20:54;;;;;;;0.70;0.70;;;;;;;10.00;100.00;101052.69;4955507;28;20027;-60
2023/09/24 05:23:21;;;;;;;0.60;0.60;;;;;;;10.12;100.00;101063.19;4969891;28;20045;-60
2023/09/24 05:25:47;;;;;;;0.60;0.60;;;;;;;10.20;100.00;101061.31;4972231;28;20027;-60
2023/09/24 05:28:12;;;;;;;0.60;0.60;;;;;;;10.30;100.00;101062.94;4948234;28;20042;-61
2023/09/24 05:30:38;;;;;;;0.60;0.60;;;;;;;10.33;100.00;101064.66;4970784;28;20077;-60
2023/09/24 05:33:04;;;;;;;0.60;0.60;;;;;;;10.39;100.00;101067.22;4971938;28;20034;-60
2023/09/24 05:35:31;;;;;;;0.60;0.60;;;;;;;10.45;100.00;101072.44;4971391;28;20019;-60
2023/09/24 05:37:56;;;;;;;0.70;0.70;;;;;;;10.53;100.00;101071.44;4961075;28;20434;-61
2023/09/24 05:40:22;;;;;;;0.60;0.60;;;;;;;10.56;100.00;101071.38;4965155;28;20029;-59
2023/09/24 05:42:47;;;;;;;0.60;0.60;;;;;;;10.63;100.00;101077.47;4968690;28;20483;-60
2023/09/24 05:45:13;;;;;;;0.60;0.60;;;;;;;10.68;100.00;101082.72;4951931;29;20053;-60
2023/09/24 05:47:38;;;;;;;0.60;0.60;;;;;;;10.76;100.00;101075.53;4952517;29;20086;-60
2023/09/24 05:50:04;;;;;;;0.60;0.60;;;;;;;10.91;100.00;101084.09;4954551;28;20031;-60
2023/09/24 05:52:30;;;;;;;0.60;0.60;;;;;;;11.02;100.00;101095.44;4971524;28;20130;-60
2023/09/24 05:54:57;;;;;;;0.60;0.60;;;;;;;11.12;100.00;101096.19;4971478;28;20097;-60
2023/09/24 05:57:26;;;;;;;0.60;0.60;;;;;;;11.21;100.00;101093.34;4971037;28;20097;-62
2023/09/24 05:59:53;;;;;;;0.60;0.60;;;;;;;11.26;100.00;101086.16;4954693;28;20038;-61
2023/09/24 06:02:18;;;;;;;0.60;0.60;;;;;;;11.39;100.00;101082.34;4952564;29;20083;-60
2023/09/24 06:04:43;;;;;;;0.60;0.60;;;;;;;11.50;100.00;101094.56;4952204;29;20027;-60
2023/09/24 06:07:09;;;;;;;0.50;0.50;;;;;;;11.53;100.00;101088.31;4974095;28;20023;-60
2023/09/24 06:09:34;;;;;;;0.50;0.50;;;;;;;11.68;100.00;101106.66;4951967;29;20101;-60
2023/09/24 06:12:00;;;;;;;0.50;0.50;;;;;;;11.72;100.00;101095.06;4968698;28;20062;-59
2023/09/24 06:14:26;;;;;;;0.57;0.57;;;;;;;11.77;100.00;101101.16;4971094;28;20077;-59
2023/09/24 06:16:51;;;;;;;0.60;0.60;;;;;;;11.90;100.00;101108.00;4965532;28;20078;-60
2023/09/24 06:19:17;;;;;;;0.50;0.50;;;;;;;12.03;100.00;101117.50;4952010;29;20432;-61
2023/09/24 06:21:42;;;;;;;0.50;0.50;;;;;;;12.03;100.00;101114.84;4963171;28;20446;-60
2023/09/24 06:24:08;;;;;;;0.50;0.50;;;;;;;12.11;100.00;101112.88;4952086;29;20016;-60
2023/09/24 06:26:35;;;;;;;0.50;0.50;;;;;;;12.30;100.00;101111.59;4951444;29;20023;-60
2023/09/24 06:29:00;;;;;;;0.50;0.50;;;;;;;12.58;100.00;101120.72;4953841;28;20035;-61
2023/09/24 06:31:26;;;;;;;0.50;0.50;;;;;;;12.77;100.00;101107.81;4963115;28;20035;-60
2023/09/24 06:33:51;;;;;;;0.60;0.60;;;;;;;12.92;100.00;101112.78;4970899;28;20046;-59
2023/09/24 06:36:17;;;;;;;0.60;0.60;;;;;;;13.06;100.00;101116.88;4970491;28;20030;-60
2023/09/24 06:38:44;;;;;;;0.50;0.50;;;;;;;13.19;100.00;101125.50;4967072;28;20133;-61
2023/09/24 06:41:10;;;;;;;0.50;0.50;;;;;;;13.37;100.00;101116.09;4970459;28;20624;-61
2023/09/24 06:43:35;;;;;;;0.40;0.40;;;;;;;13.59;100.00;101125.31;4970335;28;20027;-59
2023/09/24 06:46:06;;;;;;;0.40;0.40;;;;;;;13.71;100.00;101119.59;4967779;28;20030;-61
2023/09/24 06:48:32;;;;;;;0.50;0.50;;;;;;;14.14;100.00;101128.16;4954735;28;20487;-61
2023/09/24 06:51:09;;;;;;;0.50;0.50;;;;;;;14.96;100.00;101118.50;4978168;28;20042;-60
2023/09/24 06:53:38;;;;;;;0.40;0.40;;;;;;;15.68;98.85;101130.25;4975348;28;20039;-60
2023/09/24 06:56:05;;;;;;;0.40;0.40;;;;;;;16.56;91.53;101126.97;4970661;28;20030;-60
2023/09/24 06:58:33;;;;;;;0.40;0.40;;;;;;;16.90;85.17;101130.06;4966013;28;20039;-61
2023/09/24 07:01:03;;;;;;;0.30;0.30;;;;;;;17.22;79.28;101132.28;4951530;29;20118;-60
2023/09/24 07:03:29;;;;;;;0.40;0.40;;;;;;;17.90;80.27;101132.91;4953862;28;20035;-60
2023/09/24 07:05:55;;;;;;;0.40;0.40;;;;;;;18.40;73.66;101122.53;4951819;28;20027;-60
2023/09/24 07:08:20;;;;;;;0.40;0.40;;;;;;;18.43;70.84;101124.22;4953850;28;20490;-60
2023/09/24 07:11:18;;;;;;;0.32;0.32;;;;;;;17.84;73.45;101138.53;4958505;28;20066;-60
2023/09/24 07:13:43;;;;;;;0.30;0.30;;;;;;;17.74;76.37;101131.81;4970221;28;20054;-60
2023/09/24 07:16:09;;;;;;;0.40;0.40;;;;;;;18.23;77.61;101120.59;4969410;28;20034;-60
2023/09/24 07:18:34;;;;;;;0.30;0.30;;;;;;;19.33;70.97;101117.03;4968902;28;20048;-60
2023/09/24 07:21:00;;;;;;;0.30;0.30;;;;;;;20.35;68.16;101116.94;4972570;28;20042;-61
2023/09/24 07:23:25;;;;;;;0.30;0.30;;;;;;;21.73;64.19;101123.28;4969589;28;20025;-60
2023/09/24 07:25:51;;;;;;;0.30;0.30;;;;;;;22.50;58.40;101115.72;4968219;28;20041;-61
2023/09/24 07:28:16;;;;;;;0.20;0.20;;;;;;;23.01;54.94;101118.66;4970293;28;20033;-60
2023/09/24 07:30:41;;;;;;;0.30;0.30;;;;;;;23.27;54.44;101131.38;4959808;28;20130;-60
2023/09/24 07:33:08;;;;;;;0.20;0.20;;;;;;;23.14;53.58;101119.56;4955580;28;20094;-60
2023/09/24 07:35:34;;;;;;;0.20;0.20;;;;;;;22.64;53.59;101130.16;4973298;28;20061;-60
2023/09/24 07:38:00;;;;;;;0.20;0.20;;;;;;;22.53;53.69;101138.13;4974133;28;20034;-60
2023/09/24 07:40:25;;;;;;;0.20;0.20;;;;;;;21.43;57.99;101136.81;4968706;28;20471;-61
2023/09/24 07:42:51;;;;;;;0.20;0.20;;;;;;;21.14;59.01;101107.00;4954778;29;20147;-61
2023/09/24 07:45:18;;;;;;;0.20;0.20;;;;;;;21.31;60.84;101133.97;4955455;28;20070;-61
2023/09/24 07:47:44;;;;;;;0.20;0.20;;;;;;;21.15;60.57;101142.13;4973625;28;20039;-60
2023/09/24 07:50:10;;;;;;;0.20;0.20;;;;;;;20.34;62.22;101138.63;4967325;28;20434;-61
2023/09/24 07:52:36;;;;;;;0.20;0.20;;;;;;;20.20;64.40;101133.97;4953916;29;20101;-60
2023/09/24 07:55:01;;;;;;;0.20;0.20;;;;;;;21.04;65.07;101127.47;4956632;28;20037;-60
2023/09/24 07:57:27;;;;;;;0.20;0.20;;;;;;;21.31;60.76;101124.03;4958070;28;20035;-61
2023/09/24 07:59:54;;;;;;;0.20;0.20;;;;;;;21.61;60.01;101135.72;4973875;28;20491;-62
2023/09/24 08:02:20;;;;;;;0.20;0.20;;;;;;;22.08;59.19;101130.13;4960361;28;20035;-61
2023/09/24 08:04:46;;;;;;;0.20;0.20;;;;;;;22.64;57.03;101124.72;4972170;28;20104;-60
2023/09/24 08:07:11;;;;;;;0.20;0.20;;;;;;;22.96;55.71;101126.22;4973456;28;20022;-61
2023/09/24 08:09:38;;;;;;;0.20;0.20;;;;;;;23.15;54.09;101131.28;4971908;28;20201;-60
2023/09/24 08:12:04;;;;;;;0.20;0.20;;;;;;;23.31;54.83;101132.91;4954218;28;20102;-61
2023/09/24 08:14:29;;;;;;;0.13;0.13;;;;;;;23.36;55.78;101124.44;4973279;28;20208;-61
2023/09/24 08:16:55;;;;;;;0.20;0.20;;;;;;;23.64;53.41;101131.59;4973426;28;20807;-60
2023/09/24 08:19:20;;;;;;;0.10;0.10;;;;;;;23.65;54.20;101130.59;4973748;28;20034;-60
2023/09/24 08:21:45;;;;;;;0.10;0.10;;;;;;;23.85;53.64;101135.53;4970208;28;20090;-60
2023/09/24 08:24:11;;;;;;;0.10;0.10;;;;;;;24.04;52.55;101138.72;4966712;28;20461;-61
2023/09/24 08:26:36;;;;;;;0.10;0.10;;;;;;;24.04;53.12;101133.28;4972820;28;20077;-59
2023/09/24 08:29:05;;;;;;;0.10;0.10;;;;;;;24.01;51.96;101139.84;4963149;28;20445;-62
2023/09/24 08:31:32;;;;;;;0.20;0.20;;;;;;;23.95;53.45;101136.63;4953168;28;20376;-59
2023/09/24 08:33:58;;;;;;;0.10;0.10;;;;;;;23.74;54.19;101127.28;4972420;28;20030;-61
2023/09/24 08:36:23;;;;;;;0.10;0.10;;;;;;;23.96;51.82;101132.94;4956273;28;20042;-60
2023/09/24 08:38:48;;;;;;;0.10;0.10;;;;;;;24.30;52.26;101135.06;4954009;29;20134;-61
2023/09/24 08:41:14;;;;;;;0.10;0.10;;;;;;;24.46;49.88;101138.41;4963945;28;20026;-59
2023/09/24 08:43:41;;;;;;;0.10;0.10;;;;;;;24.57;51.39;101127.63;4970230;28;20326;-60
2023/09/24 08:46:08;;;;;;;0.10;0.10;;;;;;;24.61;51.48;101126.41;4968660;28;20083;-60
2023/09/24 08:48:35;;;;;;;0.10;0.10;;;;;;;24.88;49.31;101132.56;4953740;29;20561;-60
2023/09/24 08:51:02;;;;;;;0.10;0.10;;;;;;;25.06;48.50;101124.91;4971507;28;20043;-60
2023/09/24 08:53:30;;;;;;;0.10;0.10;;;;;;;25.10;49.41;101132.72;4969690;28;20050;-62
2023/09/24 08:55:55;;;;;;;0.10;0.10;;;;;;;24.90;48.74;101132.47;4972348;28;20446;-61
2023/09/24 08:58:21;;;;;;;0.10;0.10;;;;;;;24.95;51.11;101133.00;4965650;28;20106;-61
2023/09/24 09:00:46;;;;;;;0.10;0.10;;;;;;;25.29;50.03;101130.34;4955139;28;20450;-60
2023/09/24 09:03:11;;;;;;;0.10;0.10;;;;;;;25.45;50.35;101128.22;4971460;28;20854;-61
2023/09/24 09:05:37;;;;;;;0.10;0.10;;;;;;;25.79;49.31;101132.81;4969752;28;20033;-61
2023/09/24 09:08:04;;;;;;;0.10;0.10;;;;;;;25.94;48.23;101134.34;4970217;28;20030;-67
2023/09/24 09:10:35;;;;;;;0.05;0.05;;;;;;;25.86;47.55;101125.03;4950152;29;20035;-68
2023/09/24 09:13:06;;;;;;;0.10;0.10;;;;;;;25.72;46.59;101131.56;4952656;29;20662;-69
2023/09/24 09:15:32;;;;;;;0.10;0.10;;;;;;;25.90;47.17;101124.66;4967144;28;20061;-67
2023/09/24 09:17:59;;;;;;;0.10;0.10;;;;;;;25.93;48.00;101123.53;4962276;28;20037;-67
2023/09/24 09:20:44;;;;;;;0.10;0.10;;;;;;;26.09;46.62;101102.31;4952964;29;20479;-67
2023/09/24 09:23:13;;;;;;;0.10;0.10;;;;;;;26.51;46.81;101108.88;4960960;28;20431;-68
2023/09/24 09:26:04;;;;;;;0.10;0.10;;;;;;;26.74;45.92;101107.91;4972646;28;20363;-65
2023/09/24 09:28:31;;;;;;;0.10;0.10;;;;;;;26.71;46.21;101105.44;4967442;28;20506;-69
2023/09/24 09:31:07;;;;;;;0.10;0.10;;;;;;;27.21;46.33;101105.69;4970002;28;20022;-68
2023/09/24 09:33:41;;;;;;;0.10;0.10;;;;;;;27.43;44.24;101104.75;4971479;28;20038;-68
2023/09/24 09:36:27;;;;;;;0.10;0.10;;;;;;;27.16;45.12;101097.03;4968213;28;20110;-67
2023/09/24 09:38:55;;;;;;;0.00;0.00;;;;;;;27.23;44.27;101100.97;4971509;28;20390;-67
2023/09/24 09:41:23;;;;;;;0.10;0.10;;;;;;;27.09;43.01;101100.38;4971888;28;20035;-66
2023/09/24 09:43:50;;;;;;;0.10;0.10;;;;;;;27.32;45.41;101085.69;4970813;28;20463;-65
2023/09/24 09:46:20;;;;;;;0.00;0.00;;;;;;;27.11;44.42;101088.34;4967540;28;20026;-66
2023/09/24 09:48:55;;;;;;;0.10;0.10;;;;;;;27.10;44.90;101072.94;4971174;28;20075;-68
2023/09/24 09:51:22;;;;;;;0.10;0.10;;;;;;;27.19;44.08;101079.50;4970164;28;20623;-67
2023/09/24 09:53:50;;;;;;;0.10;0.10;;;;;;;27.41;44.07;101068.53;4971206;28;20073;-66
2023/09/24 09:56:18;;;;;;;0.00;0.00;;;;;;;27.83;44.00;101081.19;4970837;28;20082;-66
2023/09/24 09:58:47;;;;;;;0.10;0.10;;;;;;;27.81;43.40;101075.00;4970745;28;20065;-66
2023/09/24 10:01:13;;;;;;;0.10;0.10;;;;;;;27.64;43.48;101070.13;4965146;28;20117;-66
2023/09/24 10:03:42;;;;;;;0.08;0.08;;;;;;;27.79;43.91;101074.25;4970925;28;20113;-66
2023/09/24 10:06:09;;;;;;;0.00;0.00;;;;;;;27.94;43.97;101067.47;4969063;28;20038;-67
2023/09/24 10:08:42;;;;;;;0.00;0.00;;;;;;;28.04;42.28;101068.41;4971019;28;20166;-66
2023/09/24 10:11:10;;;;;;;0.10;0.10;;;;;;;28.18;42.94;101065.31;4972428;28;20392;-66
2023/09/24 10:13:50;;;;;;;0.00;0.00;;;;;;;28.33;42.21;101061.22;4944029;28;20046;-66
2023/09/24 10:16:40;;;;;;;0.00;0.00;;;;;;;28.65;42.63;101058.31;4970634;28;20058;-66
2023/09/24 10:19:11;;;;;;;0.00;0.00;;;;;;;28.74;42.66;101056.59;4970097;28;20026;-65
2023/09/24 10:21:44;;;;;;;0.00;0.00;;;;;;;28.65;41.72;101052.00;4969208;28;20105;-65
2023/09/24 10:24:09;;;;;;;0.00;0.00;;;;;;;28.22;42.58;101055.81;4969970;28;20034;-66
2023/09/24 10:27:15;;;;;;;0.00;0.00;;;;;;;28.34;43.58;101049.25;4966341;28;20864;-65
2023/09/24 10:29:49;;;;;;;0.00;0.00;;;;;;;28.79;41.35;101049.72;4970078;28;20031;-66
2023/09/24 10:32:17;;;;;;;0.00;0.00;;;;;;;28.97;41.41;101037.06;4966904;28;20057;-66
2023/09/24 10:34:54;;;;;;;0.00;0.00;;;;;;;28.75;39.06;101048.25;4970416;28;20023;-66
2023/09/24 10:37:24;;;;;;;0.00;0.00;;;;;;;28.61;39.99;101039.56;4969749;28;20117;-66
2023/09/24 10:40:04;;;;;;;0.00;0.00;;;;;;;28.52;42.63;101040.44;4970367;28;20023;-66
2023/09/24 10:42:37;;;;;;;0.00;0.00;;;;;;;28.83;41.75;101039.34;4964912;28;20066;-66
2023/09/24 10:45:05;;;;;;;0.00;0.00;;;;;;;29.12;40.22;101038.41;4969911;28;20473;-67
2023/09/24 10:47:34;;;;;;;0.00;0.00;;;;;;;28.89;38.54;101036.03;4970133;28;20039;-65
2023/09/24 10:50:03;;;;;;;0.00;0.00;;;;;;;29.21;38.18;101022.97;4968191;28;20031;-65
2023/09/24 10:52:45;;;;;;;0.00;0.00;;;;;;;28.65;35.58;101021.88;4967696;28;20122;-64
2023/09/24 10:55:10;;;;;;;0.00;0.00;;;;;;;28.39;37.88;101030.53;4969302;28;20030;-64
2023/09/24 10:57:37;;;;;;;0.00;0.00;;;;;;;28.30;38.13;101027.78;4969218;28;20057;-65
2023/09/24 11:00:03;;;;;;;0.00;0.00;;;;;;;28.35;39.99;101020.84;4969989;28;20034;-65
2023/09/24 11:02:28;;;;;;;0.10;0.10;;;;;;;28.88;38.88;101020.63;4966343;28;20034;-65
2023/09/24 11:04:53;;;;;;;0.00;0.00;;;;;;;28.36;34.50;101019.00;4969562;28;20061;-64
2023/09/24 11:07:19;;;;;;;0.00;0.00;;;;;;;28.18;37.76;101009.72;4968974;28;20026;-64
2023/09/24 11:09:49;;;;;;;0.00;0.00;;;;;;;28.48;39.03;101010.53;4969477;28;20102;-64
2023/09/24 11:12:15;;;;;;;0.00;0.00;;;;;;;28.94;38.84;101004.47;4973191;28;20055;-65
2023/09/24 11:14:40;;;;;;;0.00;0.00;;;;;;;29.28;36.95;101003.06;4970179;28;20046;-65
2023/09/24 11:17:06;;;;;;;0.00;0.00;;;;;;;29.10;36.29;101003.91;4973982;28;20030;-65
2023/09/24 11:19:45;;;;;;;0.00;0.00;;;;;;;29.34;37.48;101001.63;4971113;28;20030;-66
2023/09/24 11:22:21;;;;;;;0.00;0.00;;;;;;;29.56;36.50;100988.44;4972794;28;20061;-65
2023/09/24 11:25:07;;;;;;;0.00;0.00;;;;;;;29.58;36.83;100989.16;4973080;28;20390;-65